sensor_id;sensor_type;location;lat;lon;timestamp;pressure;altitude;pressure_sealevel;temperature;humidity
15308;BME280;7755;52.208;6.964;2023-01-25T00:03:40;103379.81;;;1.58;100.00
15308;BME280;7755;52.208;6.964;2023-01-25T00:07:43;103380.78;;;1.57;100.00
15308;BME280;7755;52.208;6.964;2023-01-25T00:11:46;103378.34;;;1.54;100.00
15308;BME280;7755;52.208;6.964;2023-01-25T00:15:51;103376.91;;;1.61;100.00
15308;BME280;7755;52.208;6.964;2023-01-25T00:20:00;103377.53;;;1.41;100.00
15308;BME280;7755;52.208;6.964;2023-01-25T00:24:04;103369.28;;;1.44;100.00
15308;BME280;7755;52.208;6.964;2023-01-25T00:28:08;103365.38;;;1.48;100.00
15308;BME280;7755;52.208;6.964;2023-01-25T00:32:36;103358.50;;;1.56;100.00
15308;BME280;7755;52.208;6.964;2023-01-25T00:36:40;103360.31;;;1.56;100.00
15308;BME280;7755;52.208;6.964;2023-01-25T00:40:44;103350.53;;;1.55;100.00
15308;BME280;7755;52.208;6.964;2023-01-25T00:44:47;103356.63;;;1.46;100.00
15308;BME280;7755;52.208;6.964;2023-01-25T00:48:53;103355.13;;;1.42;100.00
15308;BME280;7755;52.208;6.964;2023-01-25T00:52:56;103349.94;;;1.27;100.00
15308;BME280;7755;52.208;6.964;2023-01-25T00:56:59;103357.53;;;1.33;100.00
15308;BME280;7755;52.208;6.964;2023-01-25T01:01:03;103354.13;;;1.31;100.00
15308;BME280;7755;52.208;6.964;2023-01-25T01:05:08;103344.94;;;1.23;100.00
15308;BME280;7755;52.208;6.964;2023-01-25T01:09:15;103333.53;;;1.32;100.00
15308;BME280;7755;52.208;6.964;2023-01-25T01:13:25;103332.72;;;1.43;100.00
15308;BME280;7755;52.208;6.964;2023-01-25T01:17:35;103325.69;;;1.53;100.00
15308;BME280;7755;52.208;6.964;2023-01-25T01:21:39;103336.06;;;1.57;100.00
15308;BME280;7755;52.208;6.964;2023-01-25T01:25:42;103342.97;;;1.49;100.00
15308;BME280;7755;52.208;6.964;2023-01-25T01:29:45;103346.41;;;1.51;100.00
15308;BME280;7755;52.208;6.964;2023-01-25T01:33:49;103328.38;;;1.53;100.00
15308;BME280;7755;52.208;6.964;2023-01-25T01:37:53;103333.59;;;1.54;100.00
15308;BME280;7755;52.208;6.964;2023-01-25T01:41:57;103328.41;;;1.29;100.00
15308;BME280;7755;52.208;6.964;2023-01-25T01:46:01;103334.44;;;1.20;100.00
15308;BME280;7755;52.208;6.964;2023-01-25T01:50:17;103337.78;;;1.34;100.00
15308;BME280;7755;52.208;6.964;2023-01-25T01:54:26;103328.91;;;1.34;100.00
15308;BME280;7755;52.208;6.964;2023-01-25T01:58:31;103328.75;;;1.24;100.00
15308;BME280;7755;52.208;6.964;2023-01-25T02:02:35;103325.78;;;1.16;100.00
15308;BME280;7755;52.208;6.964;2023-01-25T02:06:44;103326.69;;;1.04;100.00
15308;BME280;7755;52.208;6.964;2023-01-25T02:10:56;103325.19;;;1.00;100.00
15308;BME280;7755;52.208;6.964;2023-01-25T02:15:21;103335.38;;;0.95;100.00
15308;BME280;7755;52.208;6.964;2023-01-25T02:19:36;103320.97;;;0.85;100.00
15308;BME280;7755;52.208;6.964;2023-01-25T02:23:47;103327.75;;;0.77;100.00
15308;BME280;7755;52.208;6.964;2023-01-25T02:27:57;103320.56;;;0.78;100.00
15308;BME280;7755;52.208;6.964;2023-01-25T02:32:04;103323.06;;;0.68;100.00
15308;BME280;7755;52.208;6.964;2023-01-25T02:36:21;103318.03;;;0.64;100.00
15308;BME280;7755;52.208;6.964;2023-01-25T02:40:25;103312.59;;;0.52;100.00
15308;BME280;7755;52.208;6.964;2023-01-25T02:44:31;103319.22;;;0.60;100.00
15308;BME280;7755;52.208;6.964;2023-01-25T02:48:37;103316.50;;;0.72;100.00
15308;BME280;7755;52.208;6.964;2023-01-25T02:52:40;103308.56;;;0.84;100.00
15308;BME280;7755;52.208;6.964;2023-01-25T02:56:44;103302.34;;;0.83;100.00
15308;BME280;7755;52.208;6.964;2023-01-25T03:00:49;103295.81;;;0.74;100.00
15308;BME280;7755;52.208;6.964;2023-01-25T03:04:53;103294.13;;;0.73;100.00
15308;BME280;7755;52.208;6.964;2023-01-25T03:08:57;103285.19;;;0.86;100.00
15308;BME280;7755;52.208;6.964;2023-01-25T03:13:01;103274.56;;;0.97;100.00
15308;BME280;7755;52.208;6.964;2023-01-25T03:17:06;103272.28;;;1.03;100.00
15308;BME280;7755;52.208;6.964;2023-01-25T03:21:11;103264.84;;;1.07;100.00
15308;BME280;7755;52.208;6.964;2023-01-25T03:25:14;103268.63;;;1.04;100.00
15308;BME280;7755;52.208;6.964;2023-01-25T03:29:28;103264.22;;;1.03;100.00
15308;BME280;7755;52.208;6.964;2023-01-25T03:33:33;103267.88;;;1.02;100.00
15308;BME280;7755;52.208;6.964;2023-01-25T03:37:36;103252.34;;;0.95;100.00
15308;BME280;7755;52.208;6.964;2023-01-25T03:41:39;103249.41;;;0.87;100.00
15308;BME280;7755;52.208;6.964;2023-01-25T03:45:50;103239.66;;;0.86;100.00
15308;BME280;7755;52.208;6.964;2023-01-25T03:49:55;103222.13;;;0.81;100.00
15308;BME280;7755;52.208;6.964;2023-01-25T03:53:58;103240.47;;;0.75;100.00
15308;BME280;7755;52.208;6.964;2023-01-25T03:58:01;103243.03;;;0.76;100.00
15308;BME280;7755;52.208;6.964;2023-01-25T04:02:05;103234.72;;;0.68;100.00
15308;BME280;7755;52.208;6.964;2023-01-25T04:06:10;103230.84;;;0.48;100.00
15308;BME280;7755;52.208;6.964;2023-01-25T04:10:14;103236.59;;;0.55;100.00
15308;BME280;7755;52.208;6.964;2023-01-25T04:14:20;103233.72;;;0.45;100.00
15308;BME280;7755;52.208;6.964;2023-01-25T04:18:43;103235.25;;;0.61;100.00
15308;BME280;7755;52.208;6.964;2023-01-25T04:22:49;103220.50;;;0.68;100.00
15308;BME280;7755;52.208;6.964;2023-01-25T04:26:54;103215.22;;;0.66;100.00
15308;BME280;7755;52.208;6.964;2023-01-25T04:31:01;103219.78;;;0.77;100.00
15308;BME280;7755;52.208;6.964;2023-01-25T04:35:13;103199.41;;;0.63;100.00
15308;BME280;7755;52.208;6.964;2023-01-25T04:39:18;103199.97;;;0.56;100.00
15308;BME280;7755;52.208;6.964;2023-01-25T04:43:22;103205.31;;;0.56;100.00
15308;BME280;7755;52.208;6.964;2023-01-25T04:47:31;103199.41;;;0.63;100.00
15308;BME280;7755;52.208;6.964;2023-01-25T04:51:34;103187.59;;;0.66;100.00
15308;BME280;7755;52.208;6.964;2023-01-25T04:55:39;103189.75;;;0.61;100.00
15308;BME280;7755;52.208;6.964;2023-01-25T04:59:43;103191.59;;;0.60;100.00
15308;BME280;7755;52.208;6.964;2023-01-25T05:03:46;103196.53;;;0.53;100.00
15308;BME280;7755;52.208;6.964;2023-01-25T05:08:02;103190.25;;;0.54;100.00
15308;BME280;7755;52.208;6.964;2023-01-25T05:12:07;103197.06;;;0.59;100.00
15308;BME280;7755;52.208;6.964;2023-01-25T05:16:37;103196.94;;;0.60;100.00
15308;BME280;7755;52.208;6.964;2023-01-25T05:20:41;103195.69;;;0.53;100.00
15308;BME280;7755;52.208;6.964;2023-01-25T05:24:46;103184.97;;;0.53;100.00
15308;BME280;7755;52.208;6.964;2023-01-25T05:28:51;103184.97;;;0.53;100.00
15308;BME280;7755;52.208;6.964;2023-01-25T05:33:07;103188.41;;;0.55;100.00
15308;BME280;7755;52.208;6.964;2023-01-25T05:37:12;103174.13;;;0.43;100.00
15308;BME280;7755;52.208;6.964;2023-01-25T05:41:18;103201.09;;;0.40;100.00
15308;BME280;7755;52.208;6.964;2023-01-25T05:45:23;103200.78;;;0.32;100.00
15308;BME280;7755;52.208;6.964;2023-01-25T05:49:28;103198.34;;;0.29;100.00
15308;BME280;7755;52.208;6.964;2023-01-25T05:53:32;103196.28;;;0.33;100.00
15308;BME280;7755;52.208;6.964;2023-01-25T05:57:37;103197.91;;;0.35;100.00
15308;BME280;7755;52.208;6.964;2023-01-25T06:01:42;103200.06;;;0.30;100.00
15308;BME280;7755;52.208;6.964;2023-01-25T06:05:46;103197.38;;;0.30;100.00
15308;BME280;7755;52.208;6.964;2023-01-25T06:09:49;103204.16;;;0.23;100.00
15308;BME280;7755;52.208;6.964;2023-01-25T06:13:53;103204.16;;;0.23;100.00
15308;BME280;7755;52.208;6.964;2023-01-25T06:17:57;103211.75;;;0.16;100.00
15308;BME280;7755;52.208;6.964;2023-01-25T06:22:10;103203.31;;;0.10;100.00
15308;BME280;7755;52.208;6.964;2023-01-25T06:26:14;103191.44;;;0.14;100.00
15308;BME280;7755;52.208;6.964;2023-01-25T06:30:17;103191.88;;;0.20;100.00
15308;BME280;7755;52.208;6.964;2023-01-25T06:34:22;103186.59;;;0.19;100.00
15308;BME280;7755;52.208;6.964;2023-01-25T06:38:26;103185.88;;;0.17;100.00
15308;BME280;7755;52.208;6.964;2023-01-25T06:42:29;103182.78;;;0.10;100.00
15308;BME280;7755;52.208;6.964;2023-01-25T06:46:33;103186.09;;;0.14;100.00
15308;BME280;7755;52.208;6.964;2023-01-25T06:50:37;103197.53;;;0.16;100.00
15308;BME280;7755;52.208;6.964;2023-01-25T06:54:40;103187.38;;;0.21;100.00
15308;BME280;7755;52.208;6.964;2023-01-25T06:58:44;103189.81;;;0.24;100.00
15308;BME280;7755;52.208;6.964;2023-01-25T07:02:47;103186.34;;;0.35;100.00
15308;BME280;7755;52.208;6.964;2023-01-25T07:06:51;103182.19;;;0.31;100.00
15308;BME280;7755;52.208;6.964;2023-01-25T07:10:55;103171.78;;;0.39;100.00
15308;BME280;7755;52.208;6.964;2023-01-25T07:14:58;103171.66;;;0.40;100.00
15308;BME280;7755;52.208;6.964;2023-01-25T07:19:01;103166.00;;;0.32;100.00
15308;BME280;7755;52.208;6.964;2023-01-25T07:23:05;103163.78;;;0.26;100.00
15308;BME280;7755;52.208;6.964;2023-01-25T07:27:09;103158.03;;;0.19;100.00
15308;BME280;7755;52.208;6.964;2023-01-25T07:31:12;103164.69;;;0.14;100.00
15308;BME280;7755;52.208;6.964;2023-01-25T07:35:15;103160.63;;;0.21;100.00
15308;BME280;7755;52.208;6.964;2023-01-25T07:39:19;103153.72;;;0.30;100.00
15308;BME280;7755;52.208;6.964;2023-01-25T07:43:22;103155.56;;;0.29;100.00
15308;BME280;7755;52.208;6.964;2023-01-25T07:47:26;103153.09;;;0.26;100.00
15308;BME280;7755;52.208;6.964;2023-01-25T07:51:28;103147.31;;;0.19;100.00
15308;BME280;7755;52.208;6.964;2023-01-25T07:55:33;103151.81;;;0.19;100.00
15308;BME280;7755;52.208;6.964;2023-01-25T07:59:36;103141.25;;;0.17;100.00
15308;BME280;7755;52.208;6.964;2023-01-25T08:03:39;103136.31;;;0.24;100.00
15308;BME280;7755;52.208;6.964;2023-01-25T08:07:42;103142.16;;;0.29;100.00
15308;BME280;7755;52.208;6.964;2023-01-25T08:11:46;103138.19;;;0.35;100.00
15308;BME280;7755;52.208;6.964;2023-01-25T08:15:53;103153.00;;;0.28;100.00
15308;BME280;7755;52.208;6.964;2023-01-25T08:19:56;103147.56;;;0.16;100.00
15308;BME280;7755;52.208;6.964;2023-01-25T08:24:01;103147.16;;;0.10;100.00
15308;BME280;7755;52.208;6.964;2023-01-25T08:28:05;103139.69;;;0.02;100.00
15308;BME280;7755;52.208;6.964;2023-01-25T08:32:08;103125.78;;;-0.03;100.00
15308;BME280;7755;52.208;6.964;2023-01-25T08:36:12;103125.59;;;0.00;100.00
15308;BME280;7755;52.208;6.964;2023-01-25T08:40:16;103113.69;;;0.04;100.00
15308;BME280;7755;52.208;6.964;2023-01-25T08:44:20;103117.03;;;-0.05;100.00
15308;BME280;7755;52.208;6.964;2023-01-25T08:48:24;103121.94;;;0.01;100.00
15308;BME280;7755;52.208;6.964;2023-01-25T08:52:27;103121.72;;;0.04;100.00
15308;BME280;7755;52.208;6.964;2023-01-25T08:56:30;103125.13;;;0.06;100.00
15308;BME280;7755;52.208;6.964;2023-01-25T09:00:34;103124.19;;;0.07;100.00
15308;BME280;7755;52.208;6.964;2023-01-25T09:04:37;103111.63;;;0.20;100.00
15308;BME280;7755;52.208;6.964;2023-01-25T09:08:40;103105.28;;;0.21;100.00
15308;BME280;7755;52.208;6.964;2023-01-25T09:12:43;103105.63;;;0.17;100.00
15308;BME280;7755;52.208;6.964;2023-01-25T09:16:48;103091.84;;;0.10;100.00
15308;BME280;7755;52.208;6.964;2023-01-25T09:20:51;103092.94;;;0.08;100.00
15308;BME280;7755;52.208;6.964;2023-01-25T09:24:54;103094.84;;;0.06;100.00
15308;BME280;7755;52.208;6.964;2023-01-25T09:28:57;103096.06;;;0.02;100.00
15308;BME280;7755;52.208;6.964;2023-01-25T09:33:01;103089.16;;;0.10;100.00
15308;BME280;7755;52.208;6.964;2023-01-25T09:37:05;103090.53;;;0.16;100.00
15308;BME280;7755;52.208;6.964;2023-01-25T09:41:23;103086.25;;;0.13;100.00
15308;BME280;7755;52.208;6.964;2023-01-25T09:45:31;103084.34;;;0.15;100.00
15308;BME280;7755;52.208;6.964;2023-01-25T09:49:57;103078.13;;;0.15;100.00
15308;BME280;7755;52.208;6.964;2023-01-25T09:54:03;103082.63;;;0.14;100.00
15308;BME280;7755;52.208;6.964;2023-01-25T09:58:13;103087.03;;;0.15;100.00
15308;BME280;7755;52.208;6.964;2023-01-25T10:02:32;103084.91;;;0.08;100.00
15308;BME280;7755;52.208;6.964;2023-01-25T10:06:40;103072.03;;;0.13;100.00
15308;BME280;7755;52.208;6.964;2023-01-25T10:10:59;103067.53;;;0.13;100.00
15308;BME280;7755;52.208;6.964;2023-01-25T10:15:17;103069.06;;;0.05;100.00
15308;BME280;7755;52.208;6.964;2023-01-25T10:19:23;103071.31;;;0.11;100.00
15308;BME280;7755;52.208;6.964;2023-01-25T10:24:09;103058.66;;;0.13;100.00
15308;BME280;7755;52.208;6.964;2023-01-25T10:28:24;103046.25;;;0.12;100.00
15308;BME280;7755;52.208;6.964;2023-01-25T10:32:30;103058.91;;;0.10;100.00
15308;BME280;7755;52.208;6.964;2023-01-25T10:36:40;103043.13;;;0.18;100.00
15308;BME280;7755;52.208;6.964;2023-01-25T10:40:48;103031.97;;;0.24;100.00
15308;BME280;7755;52.208;6.964;2023-01-25T10:44:53;103023.94;;;0.24;100.00
15308;BME280;7755;52.208;6.964;2023-01-25T10:48:55;103021.28;;;0.24;100.00
15308;BME280;7755;52.208;6.964;2023-01-25T10:52:58;103018.59;;;0.24;100.00
15308;BME280;7755;52.208;6.964;2023-01-25T10:57:05;103012.97;;;0.16;100.00
15308;BME280;7755;52.208;6.964;2023-01-25T11:01:11;103005.63;;;0.07;100.00
15308;BME280;7755;52.208;6.964;2023-01-25T11:05:27;102987.88;;;0.06;100.00
15308;BME280;7755;52.208;6.964;2023-01-25T11:09:33;102979.66;;;0.20;100.00
15308;BME280;7755;52.208;6.964;2023-01-25T11:13:40;102966.06;;;0.23;100.00
15308;BME280;7755;52.208;6.964;2023-01-25T11:17:43;102967.97;;;0.10;100.00
15308;BME280;7755;52.208;6.964;2023-01-25T11:21:50;102970.50;;;0.00;100.00
15308;BME280;7755;52.208;6.964;2023-01-25T11:26:10;102942.66;;;0.03;100.00
15308;BME280;7755;52.208;6.964;2023-01-25T11:30:16;102934.63;;;0.03;100.00
15308;BME280;7755;52.208;6.964;2023-01-25T11:34:24;102931.00;;;0.04;100.00
15308;BME280;7755;52.208;6.964;2023-01-25T11:38:27;102917.88;;;0.12;100.00
15308;BME280;7755;52.208;6.964;2023-01-25T11:42:42;102904.00;;;0.07;100.00
15308;BME280;7755;52.208;6.964;2023-01-25T11:46:56;102900.84;;;0.02;100.00
15308;BME280;7755;52.208;6.964;2023-01-25T11:51:05;102895.41;;;0.14;100.00
15308;BME280;7755;52.208;6.964;2023-01-25T11:55:19;102886.16;;;0.18;100.00
15308;BME280;7755;52.208;6.964;2023-01-25T11:59:35;102871.94;;;0.18;100.00
15308;BME280;7755;52.208;6.964;2023-01-25T12:08:43;102862.25;;;0.28;100.00
15308;BME280;7755;52.208;6.964;2023-01-25T12:12:55;102842.66;;;0.28;100.00
15308;BME280;7755;52.208;6.964;2023-01-25T12:17:15;102829.00;;;0.19;100.00
15308;BME280;7755;52.208;6.964;2023-01-25T12:21:28;102815.66;;;0.08;100.00
15308;BME280;7755;52.208;6.964;2023-01-25T12:25:46;102808.38;;;0.21;100.00
15308;BME280;7755;52.208;6.964;2023-01-25T12:29:57;102784.75;;;0.26;100.00
15308;BME280;7755;52.208;6.964;2023-01-25T12:34:03;102767.16;;;0.35;100.00
15308;BME280;7755;52.208;6.964;2023-01-25T12:38:14;102772.50;;;0.35;100.00
15308;BME280;7755;52.208;6.964;2023-01-25T12:42:24;102752.78;;;0.36;100.00
15308;BME280;7755;52.208;6.964;2023-01-25T12:46:31;102749.50;;;0.33;100.00
15308;BME280;7755;52.208;6.964;2023-01-25T12:50:39;102742.22;;;0.23;100.00
15308;BME280;7755;52.208;6.964;2023-01-25T12:54:44;102744.16;;;0.10;100.00
15308;BME280;7755;52.208;6.964;2023-01-25T12:58:52;102733.72;;;0.18;100.00
15308;BME280;7755;52.208;6.964;2023-01-25T13:03:07;102721.56;;;0.14;100.00
15308;BME280;7755;52.208;6.964;2023-01-25T13:07:18;102724.13;;;0.16;100.00
15308;BME280;7755;52.208;6.964;2023-01-25T13:11:26;102700.88;;;0.28;100.00
15308;BME280;7755;52.208;6.964;2023-01-25T13:15:38;102707.44;;;0.35;100.00
15308;BME280;7755;52.208;6.964;2023-01-25T13:19:41;102713.16;;;0.30;100.00
15308;BME280;7755;52.208;6.964;2023-01-25T13:23:44;102709.75;;;0.28;100.00
15308;BME280;7755;52.208;6.964;2023-01-25T13:27:48;102700.75;;;0.18;100.00
15308;BME280;7755;52.208;6.964;2023-01-25T13:31:53;102686.53;;;0.06;100.00
15308;BME280;7755;52.208;6.964;2023-01-25T13:40:36;102683.78;;;0.08;100.00
15308;BME280;7755;52.208;6.964;2023-01-25T13:44:42;102677.94;;;0.03;100.00
15308;BME280;7755;52.208;6.964;2023-01-25T13:48:54;102681.44;;;-0.08;100.00
15308;BME280;7755;52.208;6.964;2023-01-25T13:53:01;102674.28;;;-0.08;100.00
15308;BME280;7755;52.208;6.964;2023-01-25T13:57:05;102669.56;;;-0.04;100.00
15308;BME280;7755;52.208;6.964;2023-01-25T14:01:16;102666.88;;;-0.04;100.00
15308;BME280;7755;52.208;6.964;2023-01-25T14:05:24;102663.22;;;-0.14;100.00
15308;BME280;7755;52.208;6.964;2023-01-25T14:09:28;102665.91;;;-0.14;100.00
15308;BME280;7755;52.208;6.964;2023-01-25T14:13:31;102650.47;;;-0.11;100.00
15308;BME280;7755;52.208;6.964;2023-01-25T14:17:34;102665.81;;;-0.13;100.00
15308;BME280;7755;52.208;6.964;2023-01-25T14:21:38;102663.72;;;-0.20;100.00
15308;BME280;7755;52.208;6.964;2023-01-25T14:25:41;102652.91;;;-0.19;100.00
15308;BME280;7755;52.208;6.964;2023-01-25T14:29:46;102637.09;;;-0.22;100.00
15308;BME280;7755;52.208;6.964;2023-01-25T14:33:50;102648.16;;;-0.15;100.00
15308;BME280;7755;52.208;6.964;2023-01-25T14:38:00;102640.63;;;-0.21;100.00
15308;BME280;7755;52.208;6.964;2023-01-25T14:42:03;102639.19;;;-0.25;100.00
15308;BME280;7755;52.208;6.964;2023-01-25T14:46:20;102637.00;;;-0.32;100.00
15308;BME280;7755;52.208;6.964;2023-01-25T14:50:34;102632.38;;;-0.41;100.00
15308;BME280;7755;52.208;6.964;2023-01-25T14:54:45;102634.69;;;-0.36;100.00
15308;BME280;7755;52.208;6.964;2023-01-25T14:58:49;102628.13;;;-0.32;100.00
15308;BME280;7755;52.208;6.964;2023-01-25T15:03:04;102618.53;;;-0.35;100.00
15308;BME280;7755;52.208;6.964;2023-01-25T15:07:32;102620.22;;;-0.22;100.00
15308;BME280;7755;52.208;6.964;2023-01-25T15:11:38;102616.34;;;-0.30;100.00
15308;BME280;7755;52.208;6.964;2023-01-25T15:15:51;102627.66;;;-0.26;100.00
15308;BME280;7755;52.208;6.964;2023-01-25T15:19:54;102622.41;;;-0.16;100.00
15308;BME280;7755;52.208;6.964;2023-01-25T15:23:58;102633.09;;;-0.05;100.00
15308;BME280;7755;52.208;6.964;2023-01-25T15:28:12;102621.78;;;-0.09;100.00
15308;BME280;7755;52.208;6.964;2023-01-25T15:32:18;102616.84;;;-0.13;100.00
15308;BME280;7755;52.208;6.964;2023-01-25T15:36:22;102600.53;;;-0.10;100.00
15308;BME280;7755;52.208;6.964;2023-01-25T15:40:25;102590.47;;;-0.18;100.00
15308;BME280;7755;52.208;6.964;2023-01-25T15:44:29;102591.44;;;-0.19;100.00
15308;BME280;7755;52.208;6.964;2023-01-25T15:48:33;102600.09;;;-0.26;100.00
15308;BME280;7755;52.208;6.964;2023-01-25T15:52:36;102594.84;;;-0.28;100.00
15308;BME280;7755;52.208;6.964;2023-01-25T15:56:40;102580.13;;;-0.22;100.00
15308;BME280;7755;52.208;6.964;2023-01-25T16:00:45;102578.44;;;-0.23;100.00
15308;BME280;7755;52.208;6.964;2023-01-25T16:04:49;102574.66;;;-0.21;100.00
15308;BME280;7755;52.208;6.964;2023-01-25T16:08:52;102570.78;;;-0.17;100.00
15308;BME280;7755;52.208;6.964;2023-01-25T16:12:55;102568.72;;;-0.13;100.00
15308;BME280;7755;52.208;6.964;2023-01-25T16:17:01;102568.09;;;-0.06;100.00
15308;BME280;7755;52.208;6.964;2023-01-25T16:21:07;102568.44;;;-0.10;100.00
15308;BME280;7755;52.208;6.964;2023-01-25T16:25:13;102556.06;;;-0.22;100.00
15308;BME280;7755;52.208;6.964;2023-01-25T16:29:16;102555.22;;;-0.23;100.00
15308;BME280;7755;52.208;6.964;2023-01-25T16:33:20;102539.94;;;-0.32;100.00
15308;BME280;7755;52.208;6.964;2023-01-25T16:37:24;102540.94;;;-0.33;100.00
15308;BME280;7755;52.208;6.964;2023-01-25T16:41:27;102539.09;;;-0.33;100.00
15308;BME280;7755;52.208;6.964;2023-01-25T16:45:30;102565.56;;;-0.30;100.00
15308;BME280;7755;52.208;6.964;2023-01-25T16:49:34;102577.31;;;-0.21;100.00
15308;BME280;7755;52.208;6.964;2023-01-25T16:53:37;102558.75;;;-0.22;100.00
15308;BME280;7755;52.208;6.964;2023-01-25T16:57:41;102559.47;;;-0.20;100.00
15308;BME280;7755;52.208;6.964;2023-01-25T17:01:45;102568.97;;;-0.28;100.00
15308;BME280;7755;52.208;6.964;2023-01-25T17:05:49;102561.56;;;-0.35;100.00
15308;BME280;7755;52.208;6.964;2023-01-25T17:09:52;102561.69;;;-0.37;100.00
15308;BME280;7755;52.208;6.964;2023-01-25T17:13:57;102551.84;;;-0.36;100.00
15308;BME280;7755;52.208;6.964;2023-01-25T17:18:00;102559.72;;;-0.35;100.00
15308;BME280;7755;52.208;6.964;2023-01-25T17:22:04;102564.00;;;-0.32;100.00
15308;BME280;7755;52.208;6.964;2023-01-25T17:26:09;102551.50;;;-0.32;100.00
15308;BME280;7755;52.208;6.964;2023-01-25T17:30:12;102546.00;;;-0.30;100.00
15308;BME280;7755;52.208;6.964;2023-01-25T17:34:17;102532.75;;;-0.20;100.00
15308;BME280;7755;52.208;6.964;2023-01-25T17:38:22;102528.72;;;-0.15;100.00
15308;BME280;7755;52.208;6.964;2023-01-25T17:42:25;102527.88;;;-0.15;100.00
15308;BME280;7755;52.208;6.964;2023-01-25T17:46:29;102526.44;;;-0.19;100.00
15308;BME280;7755;52.208;6.964;2023-01-25T17:50:34;102511.50;;;-0.22;100.00
15308;BME280;7755;52.208;6.964;2023-01-25T17:54:39;102505.44;;;-0.24;100.00
15308;BME280;7755;52.208;6.964;2023-01-25T17:58:41;102484.31;;;-0.27;100.00
15308;BME280;7755;52.208;6.964;2023-01-25T18:02:44;102477.66;;;-0.33;100.00
15308;BME280;7755;52.208;6.964;2023-01-25T18:06:47;102464.34;;;-0.23;100.00
15308;BME280;7755;52.208;6.964;2023-01-25T18:10:51;102456.47;;;-0.24;100.00
15308;BME280;7755;52.208;6.964;2023-01-25T18:14:54;102450.78;;;-0.31;100.00
15308;BME280;7755;52.208;6.964;2023-01-25T18:18:58;102440.81;;;-0.29;100.00
15308;BME280;7755;52.208;6.964;2023-01-25T18:23:02;102441.66;;;-0.29;100.00
15308;BME280;7755;52.208;6.964;2023-01-25T18:27:10;102434.75;;;-0.31;100.00
15308;BME280;7755;52.208;6.964;2023-01-25T18:31:18;102416.19;;;-0.33;100.00
15308;BME280;7755;52.208;6.964;2023-01-25T18:35:21;102414.59;;;-0.35;100.00
15308;BME280;7755;52.208;6.964;2023-01-25T18:39:25;102413.38;;;-0.31;100.00
15308;BME280;7755;52.208;6.964;2023-01-25T18:43:30;102414.50;;;-0.34;100.00
15308;BME280;7755;52.208;6.964;2023-01-25T18:47:34;102401.97;;;-0.33;100.00
15308;BME280;7755;52.208;6.964;2023-01-25T18:51:37;102404.38;;;-0.30;100.00
15308;BME280;7755;52.208;6.964;2023-01-25T18:56:00;102413.25;;;-0.30;100.00
15308;BME280;7755;52.208;6.964;2023-01-25T19:00:07;102414.72;;;-0.37;100.00
15308;BME280;7755;52.208;6.964;2023-01-25T19:04:15;102404.16;;;-0.38;100.00
15308;BME280;7755;52.208;6.964;2023-01-25T19:08:17;102384.66;;;-0.50;100.00
15308;BME280;7755;52.208;6.964;2023-01-25T19:12:20;102380.56;;;-0.54;100.00
15308;BME280;7755;52.208;6.964;2023-01-25T19:16:25;102382.69;;;-0.48;100.00
15308;BME280;7755;52.208;6.964;2023-01-25T19:20:28;102384.75;;;-0.40;100.00
15308;BME280;7755;52.208;6.964;2023-01-25T19:24:30;102382.28;;;-0.32;100.00
15308;BME280;7755;52.208;6.964;2023-01-25T19:28:33;102370.28;;;-0.38;100.00
15308;BME280;7755;52.208;6.964;2023-01-25T19:32:37;102367.00;;;-0.41;100.00
15308;BME280;7755;52.208;6.964;2023-01-25T19:36:40;102366.28;;;-0.43;100.00
15308;BME280;7755;52.208;6.964;2023-01-25T19:40:50;102367.84;;;-0.41;100.00
15308;BME280;7755;52.208;6.964;2023-01-25T19:44:53;102359.41;;;-0.46;100.00
15308;BME280;7755;52.208;6.964;2023-01-25T19:48:58;102369.47;;;-0.49;100.00
15308;BME280;7755;52.208;6.964;2023-01-25T19:53:02;102374.25;;;-0.53;100.00
15308;BME280;7755;52.208;6.964;2023-01-25T19:57:05;102368.16;;;-0.55;100.00
15308;BME280;7755;52.208;6.964;2023-01-25T20:01:09;102353.38;;;-0.59;100.00
15308;BME280;7755;52.208;6.964;2023-01-25T20:05:14;102355.19;;;-0.60;100.00
15308;BME280;7755;52.208;6.964;2023-01-25T20:09:18;102370.38;;;-0.60;100.00
15308;BME280;7755;52.208;6.964;2023-01-25T20:13:25;102370.38;;;-0.60;100.00
15308;BME280;7755;52.208;6.964;2023-01-25T20:17:28;102365.63;;;-0.57;100.00
15308;BME280;7755;52.208;6.964;2023-01-25T20:21:32;102360.13;;;-0.55;100.00
15308;BME280;7755;52.208;6.964;2023-01-25T20:25:38;102367.78;;;-0.50;100.00
15308;BME280;7755;52.208;6.964;2023-01-25T20:29:41;102370.72;;;-0.53;100.00
15308;BME280;7755;52.208;6.964;2023-01-25T20:33:44;102351.53;;;-0.59;100.00
15308;BME280;7755;52.208;6.964;2023-01-25T20:37:49;102337.59;;;-0.62;100.00
15308;BME280;7755;52.208;6.964;2023-01-25T20:41:52;102343.78;;;-0.62;100.00
15308;BME280;7755;52.208;6.964;2023-01-25T20:45:57;102318.88;;;-0.62;100.00
15308;BME280;7755;52.208;6.964;2023-01-25T20:50:00;102317.06;;;-0.62;100.00
15308;BME280;7755;52.208;6.964;2023-01-25T20:54:04;102306.97;;;-0.58;100.00
15308;BME280;7755;52.208;6.964;2023-01-25T20:58:07;102291.53;;;-0.55;100.00
15308;BME280;7755;52.208;6.964;2023-01-25T21:02:10;102297.94;;;-0.46;100.00
15308;BME280;7755;52.208;6.964;2023-01-25T21:06:13;102286.53;;;-0.48;100.00
15308;BME280;7755;52.208;6.964;2023-01-25T21:10:19;102286.66;;;-0.49;100.00
15308;BME280;7755;52.208;6.964;2023-01-25T21:14:22;102288.94;;;-0.45;100.00
15308;BME280;7755;52.208;6.964;2023-01-25T21:18:26;102279.25;;;-0.46;100.00
15308;BME280;7755;52.208;6.964;2023-01-25T21:22:30;102267.56;;;-0.45;100.00
15308;BME280;7755;52.208;6.964;2023-01-25T21:26:35;102251.22;;;-0.51;100.00
15308;BME280;7755;52.208;6.964;2023-01-25T21:30:38;102253.56;;;-0.58;100.00
15308;BME280;7755;52.208;6.964;2023-01-25T21:34:41;102256.69;;;-0.53;100.00
15308;BME280;7755;52.208;6.964;2023-01-25T21:38:45;102258.53;;;-0.53;100.00
15308;BME280;7755;52.208;6.964;2023-01-25T21:42:50;102235.66;;;-0.67;100.00
15308;BME280;7755;52.208;6.964;2023-01-25T21:46:53;102235.75;;;-0.69;100.00